createdAt,value
2022-09-25T00:00:50.648Z,100636.50
2022-09-25T00:03:19.715Z,100640.50
2022-09-25T00:05:48.445Z,100636.53
2022-09-25T00:08:18.836Z,100637.47
2022-09-25T00:10:48.051Z,100629.13
2022-09-25T00:13:17.167Z,100637.31
2022-09-25T00:15:49.246Z,100632.47
2022-09-25T00:18:38.034Z,100631.84
2022-09-25T00:21:05.414Z,100636.19
2022-09-25T00:23:34.779Z,100641.59
2022-09-25T00:26:02.509Z,100631.81
2022-09-25T00:28:31.809Z,100639.78
2022-09-25T00:30:59.778Z,100630.34
2022-09-25T00:33:28.528Z,100631.63
2022-09-25T00:35:56.094Z,100624.47
2022-09-25T00:38:23.677Z,100628.91
2022-09-25T00:40:52.824Z,100620.34
2022-09-25T00:43:37.527Z,100623.75
2022-09-25T00:46:11.292Z,100621.44
2022-09-25T00:48:44.556Z,100627.03
2022-09-25T00:51:12.808Z,100629.75
2022-09-25T00:53:41.791Z,100631.41
2022-09-25T00:56:14.231Z,100629.53
2022-09-25T00:58:43.067Z,100635.22
2022-09-25T01:01:11.141Z,100636.06
2022-09-25T01:03:42.700Z,100640.66
2022-09-25T01:06:12.012Z,100641.34
2022-09-25T01:08:40.979Z,100631.09
2022-09-25T01:11:09.006Z,100638.16
2022-09-25T01:13:38.862Z,100637.31
2022-09-25T01:16:14.501Z,100631.41
2022-09-25T01:18:52.018Z,100628.09
2022-09-25T01:21:26.648Z,100633.94
2022-09-25T01:24:41.808Z,100627.69
2022-09-25T01:27:32.096Z,100626.50
2022-09-25T01:30:06.929Z,100625.66
2022-09-25T01:32:41.854Z,100625.28
2022-09-25T01:35:16.711Z,100632.59
2022-09-25T01:37:48.473Z,100629.47
2022-09-25T01:40:23.793Z,100623.34
2022-09-25T01:42:55.855Z,100627.97
2022-09-25T01:45:31.207Z,100630.47
2022-09-25T01:48:02.386Z,100629.22
2022-09-25T01:50:37.121Z,100639.50
2022-09-25T01:53:11.063Z,100626.97
2022-09-25T01:55:44.886Z,100635.81
2022-09-25T01:58:18.309Z,100641.47
2022-09-25T02:00:54.604Z,100627.84
2022-09-25T02:03:27.522Z,100625.28
2022-09-25T02:05:58.015Z,100630.09
2022-09-25T02:08:30.387Z,100625.28
2022-09-25T02:11:02.191Z,100623.16
2022-09-25T02:13:37.138Z,100628.19
2022-09-25T02:16:10.205Z,100628.19
2022-09-25T02:18:55.698Z,100622.56
2022-09-25T02:21:30.095Z,100623.16
2022-09-25T02:24:05.262Z,100625.47
2022-09-25T02:26:36.036Z,100627.13
2022-09-25T02:29:05.389Z,100625.25
2022-09-25T02:31:38.897Z,100629.47
2022-09-25T02:34:12.092Z,100636.34
2022-09-25T02:36:43.031Z,100634.50
2022-09-25T02:39:14.654Z,100633.22
2022-09-25T02:42:02.753Z,100632.00
2022-09-25T02:44:39.858Z,100628.28
2022-09-25T02:47:22.487Z,100635.00
2022-09-25T02:50:00.959Z,100633.53
2022-09-25T02:52:34.605Z,100629.75
2022-09-25T02:55:10.851Z,100630.81
2022-09-25T02:57:45.924Z,100628.25
2022-09-25T03:00:15.037Z,100626.16
2022-09-25T03:02:52.160Z,100626.16
2022-09-25T03:05:21.447Z,100622.63
2022-09-25T03:08:09.561Z,100629.50
2022-09-25T03:10:38.212Z,100627.84
2022-09-25T03:13:17.014Z,100626.19
2022-09-25T03:15:47.302Z,100622.22
2022-09-25T03:18:16.426Z,100623.72
2022-09-25T03:20:43.983Z,100618.91
2022-09-25T03:23:11.866Z,100623.72
2022-09-25T03:25:39.733Z,100631.19
2022-09-25T03:28:11.399Z,100627.25
2022-09-25T03:30:41.007Z,100627.28
2022-09-25T03:33:10.301Z,100627.06
2022-09-25T03:35:41.264Z,100624.34
2022-09-25T03:38:10.492Z,100624.97
2022-09-25T03:40:38.177Z,100631.69
2022-09-25T03:45:32.455Z,100619.56
2022-09-25T03:48:00.033Z,100622.47
2022-09-25T03:50:27.664Z,100624.97
2022-09-25T03:52:57.031Z,100631.63
2022-09-25T03:55:26.003Z,100625.16
2022-09-25T03:57:53.561Z,100625.78
2022-09-25T04:00:21.140Z,100619.53
2022-09-25T04:02:49.603Z,100627.47
2022-09-25T04:05:21.280Z,100627.03
2022-09-25T04:07:48.918Z,100627.03
2022-09-25T04:10:17.911Z,100615.31
2022-09-25T04:12:45.469Z,100622.44
2022-09-25T04:15:13.116Z,100614.28
2022-09-25T04:17:40.697Z,100616.38
2022-09-25T04:20:09.485Z,100620.31
2022-09-25T04:22:37.097Z,100615.28
2022-09-25T04:25:05.253Z,100611.09
2022-09-25T04:27:34.481Z,100613.44
2022-09-25T04:30:02.361Z,100604.44
2022-09-25T04:32:47.752Z,100617.00
2022-09-25T04:35:15.542Z,100611.59
2022-09-25T04:37:43.101Z,100613.25
2022-09-25T04:40:11.450Z,100611.19
2022-09-25T04:42:41.953Z,100608.25
2022-09-25T04:45:10.301Z,100609.31
2022-09-25T04:47:37.919Z,100614.09
2022-09-25T04:50:06.009Z,100612.88
2022-09-25T04:52:33.641Z,100611.66
2022-09-25T04:55:01.218Z,100611.84
2022-09-25T04:57:56.617Z,100612.88
2022-09-25T05:00:18.565Z,100616.63
2022-09-25T05:02:46.385Z,100611.41
2022-09-25T05:05:15.783Z,100616.84
2022-09-25T05:07:52.282Z,100622.72
2022-09-25T05:10:20.633Z,100616.25
2022-09-25T05:12:48.736Z,100619.19
2022-09-25T05:15:18.039Z,100618.56
2022-09-25T05:17:45.607Z,100617.09
2022-09-25T05:20:13.330Z,100615.41
2022-09-25T05:22:40.956Z,100620.22
2022-09-25T05:25:09.605Z,100626.06
2022-09-25T05:27:37.242Z,100620.84
2022-09-25T05:30:05.841Z,100628.97
2022-09-25T05:32:34.728Z,100621.22
2022-09-25T05:35:04.171Z,100623.25
2022-09-25T05:37:32.855Z,100627.47
2022-09-25T05:40:00.438Z,100624.75
2022-09-25T05:42:31.118Z,100620.75
2022-09-25T05:45:02.215Z,100623.72
2022-09-25T05:47:32.646Z,100617.81
2022-09-25T05:50:01.517Z,100618.28
2022-09-25T05:52:29.236Z,100614.75
2022-09-25T05:54:57.370Z,100619.13
2022-09-25T05:57:25.094Z,100618.09
2022-09-25T05:59:52.810Z,100618.28
2022-09-25T06:02:20.585Z,100610.28
2022-09-25T06:04:48.204Z,100620.31
2022-09-25T06:07:17.154Z,100618.69
2022-09-25T06:09:44.849Z,100616.81
2022-09-25T06:12:12.564Z,100614.56
2022-09-25T06:14:40.968Z,100617.91
2022-09-25T06:17:08.879Z,100614.13
2022-09-25T06:19:36.509Z,100623.06
2022-09-25T06:22:04.187Z,100615.31
2022-09-25T06:24:33.505Z,100621.22
2022-09-25T06:27:01.109Z,100615.78
2022-09-25T06:29:28.759Z,100621.63
2022-09-25T06:31:56.359Z,100621.63
2022-09-25T06:34:24.114Z,100618.88
2022-09-25T06:36:51.688Z,100624.13
2022-09-25T06:39:21.625Z,100624.13
2022-09-25T06:41:53.120Z,100626.03
2022-09-25T06:44:20.911Z,100611.59
2022-09-25T06:46:50.602Z,100624.38
2022-09-25T06:49:18.978Z,100620.81
2022-09-25T06:51:46.850Z,100617.69
2022-09-25T06:54:14.536Z,100618.31
2022-09-25T06:56:42.904Z,100621.25
2022-09-25T06:59:11.875Z,100610.75
2022-09-25T07:01:39.518Z,100620.31
2022-09-25T07:04:06.319Z,100620.72
2022-09-25T07:06:35.050Z,100618.63
2022-09-25T07:09:03.770Z,100616.72
2022-09-25T07:11:32.257Z,100614.50
2022-09-25T07:13:59.915Z,100619.94
2022-09-25T07:16:30.720Z,100626.25
2022-09-25T07:19:00.247Z,100625.56
2022-09-25T07:21:30.678Z,100620.34
2022-09-25T07:23:59.627Z,100624.13
2022-09-25T07:26:29.135Z,100623.25
2022-09-25T07:28:58.799Z,100627.19
2022-09-25T07:31:29.669Z,100629.06
2022-09-25T07:33:58.673Z,100629.84
2022-09-25T07:36:26.444Z,100627.97
2022-09-25T07:38:54.549Z,100628.59
2022-09-25T07:41:23.907Z,100627.38
2022-09-25T07:44:02.013Z,100628.25
2022-09-25T07:46:44.489Z,100637.50
2022-09-25T07:49:12.955Z,100637.31
2022-09-25T07:51:40.564Z,100635.81
2022-09-25T07:54:08.369Z,100629.88
2022-09-25T07:56:38.030Z,100629.22
2022-09-25T07:59:05.801Z,100630.28
2022-09-25T08:01:38.380Z,100629.41
2022-09-25T08:04:08.571Z,100630.28
2022-09-25T08:06:38.223Z,100639.94
2022-09-25T08:09:10.353Z,100638.72
2022-09-25T08:11:39.162Z,100641.47
2022-09-25T08:14:06.966Z,100646.69
2022-09-25T08:16:34.633Z,100649.19
2022-09-25T08:19:02.257Z,100650.63
2022-09-25T08:21:31.193Z,100650.22
2022-09-25T08:23:58.830Z,100655.50
2022-09-25T08:26:28.879Z,100641.69
2022-09-25T08:28:57.196Z,100652.94
2022-09-25T08:31:24.885Z,100647.09
2022-09-25T08:33:54.283Z,100645.81
2022-09-25T08:36:23.632Z,100653.31
2022-09-25T08:38:52.911Z,100650.59
2022-09-25T08:41:24.396Z,100650.63
2022-09-25T08:43:59.561Z,100657.09
2022-09-25T08:46:57.283Z,100648.00
2022-09-25T08:49:26.835Z,100654.03
2022-09-25T08:52:00.028Z,100647.13
2022-09-25T08:54:31.531Z,100653.53
2022-09-25T08:57:03.415Z,100651.38
2022-09-25T08:59:35.599Z,100652.19
2022-09-25T09:02:10.318Z,100661.69
2022-09-25T09:04:44.290Z,100655.03
2022-09-25T09:07:26.762Z,100660.47
2022-09-25T09:10:03.315Z,100663.19
2022-09-25T09:12:37.758Z,100666.19
2022-09-25T09:15:20.208Z,100664.59
2022-09-25T09:17:47.795Z,100662.09
2022-09-25T09:20:18.815Z,100661.28
2022-09-25T09:22:50.744Z,100664.41
2022-09-25T09:25:35.693Z,100662.34
2022-09-25T09:28:25.131Z,100655.25
2022-09-25T09:31:03.083Z,100658.16
2022-09-25T09:33:46.461Z,100654.59
2022-09-25T09:36:23.998Z,100657.31
2022-09-25T09:39:02.009Z,100659.56
2022-09-25T09:41:42.372Z,100655.72
2022-09-25T09:44:25.383Z,100656.53
2022-09-25T09:47:05.097Z,100654.03
2022-09-25T09:49:37.911Z,100661.16
2022-09-25T09:52:11.375Z,100655.94
2022-09-25T09:54:45.765Z,100660.13
2022-09-25T09:57:20.910Z,100655.91
2022-09-25T09:59:53.407Z,100659.03
2022-09-25T10:02:31.529Z,100651.09
2022-09-25T10:05:01.930Z,100649.19
2022-09-25T10:07:31.500Z,100648.53
2022-09-25T10:10:00.198Z,100646.59
2022-09-25T10:12:33.107Z,100646.53
2022-09-25T10:15:05.826Z,100648.03
2022-09-25T10:17:37.857Z,100651.69
2022-09-25T10:20:15.736Z,100652.75
2022-09-25T10:22:46.821Z,100647.09
2022-09-25T10:25:36.309Z,100643.47
2022-09-25T10:28:23.695Z,100650.34
2022-09-25T10:30:52.153Z,100642.00
2022-09-25T10:33:23.176Z,100652.03
2022-09-25T10:35:54.758Z,100647.81
2022-09-25T10:38:33.095Z,100644.03
2022-09-25T10:41:04.148Z,100651.31
2022-09-25T10:43:33.213Z,100654.22
2022-09-25T10:46:12.187Z,100647.31
2022-09-25T10:48:58.458Z,100650.22
2022-09-25T10:51:27.085Z,100644.09
2022-09-25T10:54:12.801Z,100655.81
2022-09-25T10:56:40.970Z,100646.97
2022-09-25T10:59:18.981Z,100648.81
2022-09-25T11:01:48.612Z,100646.03
2022-09-25T11:04:20.850Z,100649.72
2022-09-25T11:06:52.407Z,100649.72
2022-09-25T11:09:22.937Z,100646.84
2022-09-25T11:11:53.366Z,100643.75
2022-09-25T11:14:32.682Z,100640.34
2022-09-25T11:17:01.964Z,100635.19
2022-09-25T11:19:31.842Z,100641.63
2022-09-25T11:22:15.576Z,100632.53
2022-09-25T11:25:07.294Z,100636.00
2022-09-25T11:27:40.503Z,100630.63
2022-09-25T11:30:12.943Z,100635.41
2022-09-25T11:32:52.664Z,100630.53
2022-09-25T11:35:34.815Z,100632.53
2022-09-25T11:38:09.905Z,100638.72
2022-09-25T11:41:07.601Z,100626.75
2022-09-25T11:43:49.132Z,100621.06
2022-09-25T11:46:23.306Z,100617.91
2022-09-25T11:49:01.754Z,100627.97
2022-09-25T11:51:50.446Z,100614.94
2022-09-25T11:54:34.608Z,100619.81
2022-09-25T11:57:07.476Z,100616.09
2022-09-25T11:59:47.773Z,100609.47
2022-09-25T12:02:30.526Z,100609.09
2022-09-25T12:05:22.696Z,100605.75
2022-09-25T12:08:10.578Z,100606.09
2022-09-25T12:10:50.274Z,100613.94
2022-09-25T12:13:23.674Z,100599.53
2022-09-25T12:16:04.096Z,100604.88
2022-09-25T12:18:51.670Z,100603.91
2022-09-25T12:21:24.605Z,100597.72
2022-09-25T12:23:59.175Z,100595.47
2022-09-25T12:26:34.649Z,100591.31
2022-09-25T12:29:13.201Z,100588.94
2022-09-25T12:31:52.452Z,100587.28
2022-09-25T12:34:37.677Z,100582.50
2022-09-25T12:37:22.163Z,100577.75
2022-09-25T12:39:58.978Z,100579.91
2022-09-25T12:42:36.817Z,100588.72
2022-09-25T12:45:15.418Z,100573.16
2022-09-25T12:47:46.894Z,100580.50
2022-09-25T12:50:18.560Z,100569.94
2022-09-25T12:52:52.006Z,100562.81
2022-09-25T12:55:24.362Z,100562.47
2022-09-25T12:58:00.652Z,100555.59
2022-09-25T13:00:31.987Z,100549.97
2022-09-25T13:03:04.987Z,100553.47
2022-09-25T13:05:35.978Z,100553.44
2022-09-25T13:08:14.760Z,100543.97
2022-09-25T13:10:47.468Z,100530.44
2022-09-25T13:13:19.889Z,100533.19
2022-09-25T13:15:52.241Z,100535.31
2022-09-25T13:18:22.163Z,100534.44
2022-09-25T13:20:54.069Z,100528.44
2022-09-25T13:23:34.359Z,100532.16
2022-09-25T13:26:09.819Z,100528.34
2022-09-25T13:28:40.338Z,100530.06
2022-09-25T13:31:11.524Z,100529.53
2022-09-25T13:33:45.708Z,100524.13
2022-09-25T13:36:37.729Z,100531.34
2022-09-25T13:39:25.971Z,100526.22
2022-09-25T13:41:57.736Z,100523.38
2022-09-25T13:44:41.284Z,100522.72
2022-09-25T13:47:48.837Z,100516.91
2022-09-25T13:50:34.598Z,100520.91
2022-09-25T13:53:20.389Z,100511.09
2022-09-25T13:56:19.120Z,100517.38
2022-09-25T13:59:02.044Z,100523.34
2022-09-25T14:01:36.705Z,100519.81
2022-09-25T14:04:18.098Z,100521.13
2022-09-25T14:06:48.318Z,100523.50
2022-09-25T14:09:20.686Z,100524.50
2022-09-25T14:11:54.617Z,100522.25
2022-09-25T14:14:28.129Z,100525.72
2022-09-25T14:16:58.354Z,100518.22
2022-09-25T14:19:29.953Z,100522.50
2022-09-25T14:21:59.766Z,100525.13
2022-09-25T14:24:30.171Z,100511.38
2022-09-25T14:27:00.197Z,100520.66
2022-09-25T14:29:31.429Z,100509.38
2022-09-25T14:32:42.776Z,100510.31
2022-09-25T14:35:24.226Z,100509.97
2022-09-25T14:38:09.166Z,100502.75
2022-09-25T14:40:41.828Z,100508.91
2022-09-25T14:43:38.139Z,100503.00
2022-09-25T14:46:11.838Z,100507.38
2022-09-25T14:48:46.630Z,100497.03
2022-09-25T14:51:25.401Z,100498.59
2022-09-25T14:53:58.303Z,100501.47
2022-09-25T14:56:31.468Z,100493.72
2022-09-25T14:59:03.254Z,100493.53
2022-09-25T15:01:32.672Z,100490.78
2022-09-25T15:04:03.971Z,100494.94
2022-09-25T15:06:33.978Z,100487.81
2022-09-25T15:09:02.720Z,100499.19
2022-09-25T15:11:42.597Z,100497.19
2022-09-25T15:14:11.213Z,100492.56
2022-09-25T15:16:57.117Z,100495.16
2022-09-25T15:19:28.849Z,100494.34
2022-09-25T15:21:56.527Z,100502.91
2022-09-25T15:24:27.853Z,100502.78
2022-09-25T15:27:03.588Z,100501.56
2022-09-25T15:29:36.087Z,100501.09
2022-09-25T15:32:05.745Z,100500.53
2022-09-25T15:34:37.977Z,100486.41
2022-09-25T15:37:17.715Z,100497.69
2022-09-25T15:39:45.726Z,100493.97
2022-09-25T15:42:15.570Z,100500.03
2022-09-25T15:44:43.613Z,100493.41
2022-09-25T15:47:52.350Z,100486.97
2022-09-25T15:50:25.031Z,100479.28
2022-09-25T15:52:57.469Z,100479.00
2022-09-25T15:55:25.816Z,100479.00
2022-09-25T15:57:56.777Z,100477.00
2022-09-25T16:00:43.752Z,100486.84
2022-09-25T16:03:35.628Z,100477.56
2022-09-25T16:06:04.330Z,100480.41
2022-09-25T16:08:33.660Z,100474.38
2022-09-25T16:11:13.658Z,100472.22
2022-09-25T16:13:43.582Z,100472.84
2022-09-25T16:16:19.371Z,100458.34
2022-09-25T16:18:48.851Z,100462.16
2022-09-25T16:21:21.512Z,100459.66
2022-09-25T16:23:56.355Z,100457.78
2022-09-25T16:26:28.809Z,100460.13
2022-09-25T16:29:15.722Z,100462.28
2022-09-25T16:31:45.812Z,100462.50
2022-09-25T16:34:25.737Z,100460.88
2022-09-25T16:36:55.624Z,100465.22
2022-09-25T16:39:25.967Z,100472.47
2022-09-25T16:41:54.013Z,100468.44
2022-09-25T16:44:24.329Z,100468.69
2022-09-25T16:47:22.292Z,100470.47
2022-09-25T16:49:51.425Z,100479.34
2022-09-25T16:52:22.327Z,100465.56
2022-09-25T16:54:53.618Z,100468.56
2022-09-25T16:57:22.452Z,100467.72
2022-09-25T16:59:50.386Z,100478.63
2022-09-25T17:02:25.461Z,100468.56
2022-09-25T17:04:54.459Z,100471.75
2022-09-25T17:07:22.192Z,100469.72
2022-09-25T17:09:49.947Z,100471.63
2022-09-25T17:12:20.923Z,100471.25
2022-09-25T17:14:49.200Z,100471.88
2022-09-25T17:17:20.492Z,100472.44
2022-09-25T17:19:48.510Z,100476.47
2022-09-25T17:22:17.730Z,100470.44
2022-09-25T17:24:47.669Z,100472.31
2022-09-25T17:27:19.322Z,100465.44
2022-09-25T17:29:48.105Z,100466.03
2022-09-25T17:32:17.383Z,100466.53
2022-09-25T17:34:47.299Z,100473.03
2022-09-25T17:37:15.467Z,100468.78
2022-09-25T17:39:44.620Z,100464.25
2022-09-25T17:42:12.627Z,100464.41
2022-09-25T17:44:42.502Z,100468.69
2022-09-25T17:47:12.959Z,100473.06
2022-09-25T17:49:40.895Z,100474.50
2022-09-25T17:52:11.738Z,100471.53
2022-09-25T17:54:39.365Z,100474.75
2022-09-25T17:57:08.970Z,100471.66
2022-09-25T17:59:36.568Z,100471.13
2022-09-25T18:02:05.188Z,100478.94
2022-09-25T18:04:32.875Z,100479.75
2022-09-25T18:07:00.497Z,100477.13
2022-09-25T18:09:28.055Z,100476.28
2022-09-25T18:11:55.795Z,100474.66
2022-09-25T18:14:24.729Z,100479.00
2022-09-25T18:16:52.344Z,100476.28
2022-09-25T18:19:38.724Z,100478.19
2022-09-25T18:22:18.982Z,100466.69
2022-09-25T18:24:47.620Z,100465.72
2022-09-25T18:27:16.544Z,100467.63
2022-09-25T18:29:46.129Z,100459.56
2022-09-25T18:32:14.282Z,100458.94
2022-09-25T18:34:42.021Z,100472.31
2022-09-25T18:37:10.042Z,100468.41
2022-09-25T18:39:37.779Z,100465.34
2022-09-25T18:42:05.661Z,100462.22
2022-09-25T18:44:38.440Z,100469.56
2022-09-25T18:47:10.564Z,100459.13
2022-09-25T18:49:38.165Z,100461.28
2022-09-25T18:52:06.063Z,100460.91
2022-09-25T18:54:34.058Z,100451.72
2022-09-25T18:57:01.682Z,100458.25
2022-09-25T18:59:29.316Z,100454.06
2022-09-25T19:01:57.076Z,100457.84
2022-09-25T19:04:26.585Z,100458.91
2022-09-25T19:06:54.178Z,100448.47
2022-09-25T19:09:25.388Z,100443.84
2022-09-25T19:11:53.148Z,100454.75
2022-09-25T19:14:22.914Z,100445.75
2022-09-25T19:16:51.719Z,100440.78
2022-09-25T19:19:19.715Z,100437.44
2022-09-25T19:21:49.080Z,100436.81
2022-09-25T19:24:18.109Z,100436.25
2022-09-25T19:26:46.092Z,100441.69
2022-09-25T19:29:13.869Z,100443.81
2022-09-25T19:31:41.608Z,100446.09
2022-09-25T19:34:10.202Z,100443.94
2022-09-25T19:36:38.416Z,100435.19
2022-09-25T19:39:07.645Z,100437.28
2022-09-25T19:41:37.961Z,100435.63
2022-09-25T19:44:13.366Z,100423.31
2022-09-25T19:46:42.762Z,100424.00
2022-09-25T19:49:11.102Z,100424.69
2022-09-25T19:51:39.143Z,100416.38
2022-09-25T19:54:09.808Z,100418.97
2022-09-25T19:56:40.567Z,100425.91
2022-09-25T19:59:08.944Z,100417.38
2022-09-25T20:01:36.703Z,100424.34
2022-09-25T20:04:08.204Z,100421.81
2022-09-25T20:06:37.683Z,100417.66
2022-09-25T20:09:06.112Z,100422.53
2022-09-25T20:11:36.248Z,100420.03
2022-09-25T20:14:06.041Z,100414.19
2022-09-25T20:16:34.424Z,100411.25
2022-09-25T20:19:03.851Z,100415.88
2022-09-25T20:21:37.060Z,100404.22
2022-09-25T20:24:07.156Z,100397.13
2022-09-25T20:26:36.791Z,100398.78
2022-09-25T20:29:08.547Z,100397.13
2022-09-25T20:31:38.221Z,100390.84
2022-09-25T20:34:05.977Z,100391.06
2022-09-25T20:36:36.196Z,100397.34
2022-09-25T20:39:04.551Z,100388.97
2022-09-25T20:41:33.203Z,100383.38
2022-09-25T20:44:02.562Z,100391.75
2022-09-25T20:46:32.634Z,100388.81
2022-09-25T20:49:00.598Z,100393.50
2022-09-25T20:51:32.114Z,100391.00
2022-09-25T20:54:02.544Z,100392.03
2022-09-25T20:56:31.531Z,100389.09
2022-09-25T20:59:00.260Z,100394.53
2022-09-25T21:01:31.239Z,100394.78
2022-09-25T21:04:01.477Z,100394.59
2022-09-25T21:06:30.888Z,100383.44
2022-09-25T21:09:00.732Z,100379.81
2022-09-25T21:11:30.044Z,100382.22
2022-09-25T21:13:59.517Z,100389.31
2022-09-25T21:16:30.447Z,100380.56
2022-09-25T21:18:59.877Z,100381.41
2022-09-25T21:21:29.681Z,100374.50
2022-09-25T21:23:58.787Z,100374.75
2022-09-25T21:26:28.693Z,100372.56
2022-09-25T21:28:58.967Z,100363.13
2022-09-25T21:31:30.572Z,100364.44
2022-09-25T21:33:59.917Z,100366.56
2022-09-25T21:36:29.248Z,100365.38
2022-09-25T21:38:57.408Z,100366.88
2022-09-25T21:41:26.893Z,100366.25
2022-09-25T21:43:55.772Z,100361.88
2022-09-25T21:46:24.191Z,100358.56
2022-09-25T21:48:55.418Z,100363.38
2022-09-25T21:51:25.679Z,100359.00
2022-09-25T21:53:54.307Z,100358.38
2022-09-25T21:56:24.127Z,100358.59
2022-09-25T21:58:53.524Z,100359.03
2022-09-25T22:01:23.893Z,100355.94
2022-09-25T22:03:55.246Z,100348.22
2022-09-25T22:06:24.942Z,100343.84
2022-09-25T22:08:55.174Z,100343.84
2022-09-25T22:11:23.481Z,100344.28
2022-09-25T22:13:51.929Z,100341.25
2022-09-25T22:16:22.271Z,100336.19
2022-09-25T22:18:54.105Z,100336.44
2022-09-25T22:21:24.798Z,100333.09
2022-09-25T22:23:52.483Z,100332.03
2022-09-25T22:26:20.851Z,100330.81
2022-09-25T22:28:49.028Z,100328.34
2022-09-25T22:31:20.141Z,100333.38
2022-09-25T22:33:49.142Z,100331.69
2022-09-25T22:36:18.042Z,100331.75
2022-09-25T22:38:45.623Z,100332.97
2022-09-25T22:41:14.844Z,100331.13
2022-09-25T22:43:43.699Z,100332.97
2022-09-25T22:46:13.308Z,100332.63
2022-09-25T22:48:41.119Z,100338.69
2022-09-25T22:51:12.406Z,100337.53
2022-09-25T22:53:42.287Z,100331.47
2022-09-25T22:56:13.090Z,100334.19
2022-09-25T22:58:41.669Z,100324.41
2022-09-25T23:01:12.964Z,100319.41
2022-09-25T23:03:40.732Z,100329.84
2022-09-25T23:06:08.936Z,100330.06
2022-09-25T23:08:36.802Z,100321.25
2022-09-25T23:11:10.501Z,100315.81
2022-09-25T23:13:38.073Z,100311.06
2022-09-25T23:16:07.854Z,100311.88
2022-09-25T23:18:36.392Z,100312.91
2022-09-25T23:21:05.172Z,100306.44
2022-09-25T23:23:33.767Z,100318.56
2022-09-25T23:26:05.898Z,100318.34
2022-09-25T23:28:35.862Z,100311.47
2022-09-25T23:31:08.690Z,100297.41
2022-09-25T23:33:36.493Z,100295.28
2022-09-25T23:36:06.220Z,100297.34
2022-09-25T23:38:34.305Z,100293.56
2022-09-25T23:41:02.572Z,100282.69
2022-09-25T23:43:30.353Z,100280.00
2022-09-25T23:45:59.337Z,100274.38
2022-09-25T23:48:26.924Z,100276.22
2022-09-25T23:50:54.498Z,100268.97
2022-09-25T23:53:22.115Z,100265.03
2022-09-25T23:55:50.596Z,100256.06
2022-09-25T23:58:18.590Z,100263.97
